Home > Products > Valid Products > TAF

000
FTUS45 KLKN 292320
TAFELY
TAF
KELY 292320Z 3000/3024 VRB06KT P6SM SKC
     FM300500 16008KT P6SM FEW250=



000
FTUS45 KLKN 292320
TAFEKO
TAF
KEKO 292320Z 3000/3024 VRB06KT P6SM SKC=



000
FTUS45 KLKN 292320
TAFTPH
TAF
KTPH 292320Z 3000/3024 19011KT P6SM SKC
     FM300500 01010KT P6SM FEW120=



000
FTUS45 KLKN 292320
TAFWMC
TAF
KWMC 292320Z 3000/3024 VRB06KT P6SM SKC=



000
FTUS45 KLKN 292320
TAFEKO
TAF
KEKO 292320Z 3000/3024 VRB06KT P6SM SKC=



000
FTUS45 KLKN 292320
TAFWMC
TAF
KWMC 292320Z 3000/3024 VRB06KT P6SM SKC=



000
FTUS45 KLKN 292320
TAFTPH
TAF
KTPH 292320Z 3000/3024 19011KT P6SM SKC
     FM300500 01010KT P6SM FEW120=



000
FTUS45 KLKN 292320
TAFELY
TAF
KELY 292320Z 3000/3024 VRB06KT P6SM SKC
     FM300500 16008KT P6SM FEW250=



000
FTUS45 KLKN 291748
TAFEKO
TAF
KEKO 291748Z 2918/3018 VRB06KT P6SM SKC=



000
FTUS45 KLKN 291748
TAFELY
TAF
KELY 291748Z 2918/3018 VRB06KT P6SM SKC
     FM300500 16008KT P6SM FEW250=



000
FTUS45 KLKN 291748
TAFWMC
TAF
KWMC 291748Z 2918/3018 VRB06KT P6SM SKC=



000
FTUS45 KLKN 291748
TAFEKO
TAF
KEKO 291748Z 2918/3018 VRB06KT P6SM SKC=



000
FTUS45 KLKN 291748
TAFTPH
TAF
KTPH 291748Z 2918/3018 VRB06KT P6SM SKC
     FM292000 19011KT P6SM SKC
     FM300500 01010KT P6SM FEW120=



000
FTUS45 KLKN 291748
TAFWMC
TAF
KWMC 291748Z 2918/3018 VRB06KT P6SM SKC=



000
FTUS45 KLKN 291748
TAFELY
TAF
KELY 291748Z 2918/3018 VRB06KT P6SM SKC
     FM300500 16008KT P6SM FEW250=



000
FTUS45 KLKN 291748
TAFTPH
TAF
KTPH 291748Z 2918/3018 VRB06KT P6SM SKC
     FM292000 19011KT P6SM SKC
     FM300500 01010KT P6SM FEW120=



000
FTUS45 KLKN 291748
TAFELY
TAF
KELY 291748Z 2918/3018 VRB06KT P6SM SKC
     FM300500 16008KT P6SM FEW250=



000
FTUS45 KLKN 291748
TAFTPH
TAF
KTPH 291748Z 2918/3018 VRB06KT P6SM SKC
     FM292000 19011KT P6SM SKC
     FM300500 01010KT P6SM FEW120=



000
FTUS45 KLKN 291748
TAFEKO
TAF
KEKO 291748Z 2918/3018 VRB06KT P6SM SKC=



000
FTUS45 KLKN 291748
TAFWMC
TAF
KWMC 291748Z 2918/3018 VRB06KT P6SM SKC=



000
FTUS45 KLKN 291748
TAFELY
TAF
KELY 291748Z 2918/3018 VRB06KT P6SM SKC
     FM300500 16008KT P6SM FEW250=



000
FTUS45 KLKN 291748
TAFWMC
TAF
KWMC 291748Z 2918/3018 VRB06KT P6SM SKC=



000
FTUS45 KLKN 291748
TAFEKO
TAF
KEKO 291748Z 2918/3018 VRB06KT P6SM SKC=



000
FTUS45 KLKN 291748
TAFTPH
TAF
KTPH 291748Z 2918/3018 VRB06KT P6SM SKC
     FM292000 19011KT P6SM SKC
     FM300500 01010KT P6SM FEW120=



000
FTUS45 KLKN 291120
TAFELY
TAF
KELY 291120Z 2912/3012 16006KT P6SM SKC
     FM291900 30008KT P6SM SKC
     FM300500 16008KT P6SM SKC=



000
FTUS45 KLKN 291120
TAFELY
TAF
KELY 291120Z 2912/3012 16006KT P6SM SKC
     FM291900 30008KT P6SM SKC
     FM300500 16008KT P6SM SKC=



000
FTUS45 KLKN 291120
TAFTPH
TAF
KTPH 291120Z 2912/3012 01010KT P6SM SKC
     FM292000 19010KT P6SM SKC=



000
FTUS45 KLKN 291120
TAFELY
TAF
KELY 291120Z 2912/3012 16006KT P6SM SKC
     FM291900 30008KT P6SM SKC
     FM300500 16008KT P6SM SKC=



000
FTUS45 KLKN 291120
TAFEKO
TAF
KEKO 291120Z 2912/3012 VRB06KT P6SM SKC=



000
FTUS45 KLKN 291120
TAFWMC
TAF
KWMC 291120Z 2912/3012 04008KT P6SM SKC
     FM300000 35006KT P6SM SKC=



000
FTUS45 KLKN 291120
TAFWMC
TAF
KWMC 291120Z 2912/3012 04008KT P6SM SKC
     FM300000 35006KT P6SM SKC=



000
FTUS45 KLKN 291120
TAFELY
TAF
KELY 291120Z 2912/3012 16006KT P6SM SKC
     FM291900 30008KT P6SM SKC
     FM300500 16008KT P6SM SKC=



000
FTUS45 KLKN 291120
TAFEKO
TAF
KEKO 291120Z 2912/3012 VRB06KT P6SM SKC=



000
FTUS45 KLKN 291120
TAFWMC
TAF
KWMC 291120Z 2912/3012 04008KT P6SM SKC
     FM300000 35006KT P6SM SKC=



000
FTUS45 KLKN 291120
TAFTPH
TAF
KTPH 291120Z 2912/3012 01010KT P6SM SKC
     FM292000 19010KT P6SM SKC=



000
FTUS45 KLKN 291120
TAFTPH
TAF
KTPH 291120Z 2912/3012 01010KT P6SM SKC
     FM292000 19010KT P6SM SKC=



000
FTUS45 KLKN 291120
TAFTPH
TAF
KTPH 291120Z 2912/3012 01010KT P6SM SKC
     FM292000 19010KT P6SM SKC=



000
FTUS45 KLKN 291120
TAFEKO
TAF
KEKO 291120Z 2912/3012 VRB06KT P6SM SKC=



000
FTUS45 KLKN 291120
TAFEKO
TAF
KEKO 291120Z 2912/3012 VRB06KT P6SM SKC=



000
FTUS45 KLKN 290520
TAFEKO
TAF
KEKO 290520Z 2906/3006 VRB06KT P6SM SKC=



000
FTUS45 KLKN 290520
TAFTPH
TAF
KTPH 290520Z 2906/3006 01010KT P6SM SKC
     FM292000 19010KT P6SM SKC=



000
FTUS45 KLKN 290520
TAFWMC
TAF
KWMC 290520Z 2906/3006 VRB06KT P6SM SKC=



000
FTUS45 KLKN 290520
TAFEKO
TAF
KEKO 290520Z 2906/3006 VRB06KT P6SM SKC=



000
FTUS45 KLKN 290520
TAFELY
TAF
KELY 290520Z 2906/3006 01011KT P6SM SKC
     FM290700 16006KT P6SM SKC=



000
FTUS45 KLKN 290520
TAFWMC
TAF
KWMC 290520Z 2906/3006 VRB06KT P6SM SKC=



000
FTUS45 KLKN 290520
TAFTPH
TAF
KTPH 290520Z 2906/3006 01010KT P6SM SKC
     FM292000 19010KT P6SM SKC=



000
FTUS45 KLKN 290520
TAFELY
TAF
KELY 290520Z 2906/3006 01011KT P6SM SKC
     FM290700 16006KT P6SM SKC=



000
FTUS45 KLKN 282320
TAFTPH
TAF
KTPH 282320Z 2900/2924 VRB06KT P6SM SKC
     FM290700 01010KT P6SM SKC=



000
FTUS45 KLKN 282320
TAFEKO
TAF
KEKO 282320Z 2900/2924 VRB06KT P6SM SKC=



000
FTUS45 KLKN 282320
TAFELY
TAF
KELY 282320Z 2900/2924 01011KT P6SM SKC
     FM290700 16006KT P6SM SKC=



000
FTUS45 KLKN 282320
TAFEKO
TAF
KEKO 282320Z 2900/2924 VRB06KT P6SM SKC=



000
FTUS45 KLKN 282320
TAFTPH
TAF
KTPH 282320Z 2900/2924 VRB06KT P6SM SKC
     FM290700 01010KT P6SM SKC=



000
FTUS45 KLKN 282320
TAFELY
TAF
KELY 282320Z 2900/2924 01011KT P6SM SKC
     FM290700 16006KT P6SM SKC=



000
FTUS45 KLKN 282320
TAFTPH
TAF
KTPH 282320Z 2900/2924 VRB06KT P6SM SKC
     FM290700 01010KT P6SM SKC=



000
FTUS45 KLKN 282320
TAFWMC
TAF
KWMC 282320Z 2900/2924 01009KT P6SM SKC=



000
FTUS45 KLKN 282320
TAFWMC
TAF
KWMC 282320Z 2900/2924 01009KT P6SM SKC=



000
FTUS45 KLKN 282320
TAFELY
TAF
KELY 282320Z 2900/2924 01011KT P6SM SKC
     FM290700 16006KT P6SM SKC=



000
FTUS45 KLKN 282320
TAFELY
TAF
KELY 282320Z 2900/2924 01011KT P6SM SKC
     FM290700 16006KT P6SM SKC=



000
FTUS45 KLKN 282320
TAFWMC
TAF
KWMC 282320Z 2900/2924 01009KT P6SM SKC=



000
FTUS45 KLKN 282320
TAFWMC
TAF
KWMC 282320Z 2900/2924 01009KT P6SM SKC=



000
FTUS45 KLKN 282320
TAFEKO
TAF
KEKO 282320Z 2900/2924 VRB06KT P6SM SKC=



000
FTUS45 KLKN 282320
TAFTPH
TAF
KTPH 282320Z 2900/2924 VRB06KT P6SM SKC
     FM290700 01010KT P6SM SKC=



000
FTUS45 KLKN 282320
TAFEKO
TAF
KEKO 282320Z 2900/2924 VRB06KT P6SM SKC=



000
FTUS45 KLKN 281901 AAA
TAFWMC
TAF AMD
KWMC 281901Z 2819/2918 01010G20KT P6SM SKC
     FM290100 04011KT P6SM SKC=



000
FTUS45 KLKN 281901 AAA
TAFWMC
TAF AMD
KWMC 281901Z 2819/2918 01010G20KT P6SM SKC
     FM290100 04011KT P6SM SKC=



000
FTUS45 KLKN 281720
TAFTPH
TAF
KTPH 281720Z 2818/2918 02010KT P6SM SKC
     FM281900 VRB06KT P6SM SKC
     FM290700 01010KT P6SM SKC=



000
FTUS45 KLKN 281720
TAFWMC
TAF
KWMC 281720Z 2818/2918 04010G20KT P6SM SKC
     FM290100 04011KT P6SM SKC=



000
FTUS45 KLKN 281720
TAFWMC
TAF
KWMC 281720Z 2818/2918 04010G20KT P6SM SKC
     FM290100 04011KT P6SM SKC=



000
FTUS45 KLKN 281720
TAFEKO
TAF
KEKO 281720Z 2818/2918 VRB06KT P6SM SKC=



000
FTUS45 KLKN 281720
TAFELY
TAF
KELY 281720Z 2818/2918 02011KT P6SM SKC
     FM290700 16006KT P6SM SKC=



000
FTUS45 KLKN 281720
TAFTPH
TAF
KTPH 281720Z 2818/2918 02010KT P6SM SKC
     FM281900 VRB06KT P6SM SKC
     FM290700 01010KT P6SM SKC=



000
FTUS45 KLKN 281720
TAFELY
TAF
KELY 281720Z 2818/2918 02011KT P6SM SKC
     FM290700 16006KT P6SM SKC=



000
FTUS45 KLKN 281720
TAFEKO
TAF
KEKO 281720Z 2818/2918 VRB06KT P6SM SKC=



000
FTUS45 KLKN 281507 AAA
TAFWMC
TAF AMD
KWMC 281507Z 2815/2912 04010G20KT P6SM SKC=



000
FTUS45 KLKN 281507 AAA
TAFWMC
TAF AMD
KWMC 281507Z 2815/2912 04010G20KT P6SM SKC=



000
FTUS45 KLKN 281507 AAA
TAFWMC
TAF AMD
KWMC 281507Z 2815/2912 04010G20KT P6SM SKC=



000
FTUS45 KLKN 281507 AAA
TAFWMC
TAF AMD
KWMC 281507Z 2815/2912 04010G20KT P6SM SKC=



000
FTUS45 KLKN 281120
TAFWMC
TAF
KWMC 281120Z 2812/2912 04010KT P6SM SKC
      AMD NOT SKED=



000
FTUS45 KLKN 281120
TAFEKO
TAF
KEKO 281120Z 2812/2912 05008KT P6SM SKC
     FM290600 VRB05KT P6SM SKC=



000
FTUS45 KLKN 281120
TAFEKO
TAF
KEKO 281120Z 2812/2912 05008KT P6SM SKC
     FM290600 VRB05KT P6SM SKC=



000
FTUS45 KLKN 281120
TAFTPH
TAF
KTPH 281120Z 2812/2912 02012KT P6SM SKC
     FM281800 VRB06KT P6SM SKC=



000
FTUS45 KLKN 281120
TAFELY
TAF
KELY 281120Z 2812/2912 02012KT P6SM SKC
     FM290000 35008KT P6SM SKC
     FM290600 15007KT P6SM SKC=



000
FTUS45 KLKN 281120
TAFELY
TAF
KELY 281120Z 2812/2912 02012KT P6SM SKC
     FM290000 35008KT P6SM SKC
     FM290600 15007KT P6SM SKC=



000
FTUS45 KLKN 281120
TAFTPH
TAF
KTPH 281120Z 2812/2912 02012KT P6SM SKC
     FM281800 VRB06KT P6SM SKC=



000
FTUS45 KLKN 281120
TAFWMC
TAF
KWMC 281120Z 2812/2912 04010KT P6SM SKC
      AMD NOT SKED=



000
FTUS45 KLKN 280520
TAFTPH
TAF
KTPH 280520Z 2806/2906 34012KT P6SM SKC
     FM281800 VRB06KT P6SM SKC=



000
FTUS45 KLKN 280520
TAFWMC
TAF
KWMC 280520Z 2806/2906 36007KT P6SM SKC=



000
FTUS45 KLKN 280520
TAFELY
TAF
KELY 280520Z 2806/2906 VRB06KT P6SM SKC=



000
FTUS45 KLKN 280520
TAFEKO
TAF
KEKO 280520Z 2806/2906 03003KT P6SM SKC=



000
FTUS45 KLKN 280520
TAFEKO
TAF
KEKO 280520Z 2806/2906 03003KT P6SM SKC=



000
FTUS45 KLKN 280520
TAFWMC
TAF
KWMC 280520Z 2806/2906 36007KT P6SM SKC=



000
FTUS45 KLKN 280520
TAFTPH
TAF
KTPH 280520Z 2806/2906 34012KT P6SM SKC
     FM281800 VRB06KT P6SM SKC=



000
FTUS45 KLKN 280520
TAFELY
TAF
KELY 280520Z 2806/2906 VRB06KT P6SM SKC=



000
FTUS45 KLKN 272322
TAFTPH
TAF
KTPH 272322Z 2800/2824 34012KT P6SM SKC
     FM281800 VRB06KT P6SM SKC=



000
FTUS45 KLKN 272322
TAFELY
TAF
KELY 272322Z 2800/2824 VRB06KT P6SM SKC=



000
FTUS45 KLKN 272322
TAFWMC
TAF
KWMC 272322Z 2800/2824 36007KT P6SM SKC=



000
FTUS45 KLKN 272322
TAFEKO
TAF
KEKO 272322Z 2800/2824 32010KT P6SM FEW070
     FM280400 03003KT P6SM SKC=



000
FTUS45 KLKN 272322
TAFEKO
TAF
KEKO 272322Z 2800/2824 32010KT P6SM FEW070
     FM280400 03003KT P6SM SKC=



000
FTUS45 KLKN 272322
TAFEKO
TAF
KEKO 272322Z 2800/2824 32010KT P6SM FEW070
     FM280400 03003KT P6SM SKC=



000
FTUS45 KLKN 272322
TAFTPH
TAF
KTPH 272322Z 2800/2824 34012KT P6SM SKC
     FM281800 VRB06KT P6SM SKC=



000
FTUS45 KLKN 272322
TAFWMC
TAF
KWMC 272322Z 2800/2824 36007KT P6SM SKC=



000
FTUS45 KLKN 272322
TAFTPH
TAF
KTPH 272322Z 2800/2824 34012KT P6SM SKC
     FM281800 VRB06KT P6SM SKC=



000
FTUS45 KLKN 272322
TAFELY
TAF
KELY 272322Z 2800/2824 VRB06KT P6SM SKC=



000
FTUS45 KLKN 272322
TAFWMC
TAF
KWMC 272322Z 2800/2824 36007KT P6SM SKC=



000
FTUS45 KLKN 272322
TAFEKO
TAF
KEKO 272322Z 2800/2824 32010KT P6SM FEW070
     FM280400 03003KT P6SM SKC=



000
FTUS45 KLKN 272322
TAFELY
TAF
KELY 272322Z 2800/2824 VRB06KT P6SM SKC=



000
FTUS45 KLKN 272322
TAFWMC
TAF
KWMC 272322Z 2800/2824 36007KT P6SM SKC=



000
FTUS45 KLKN 272322
TAFELY
TAF
KELY 272322Z 2800/2824 VRB06KT P6SM SKC=



000
FTUS45 KLKN 272322
TAFTPH
TAF
KTPH 272322Z 2800/2824 34012KT P6SM SKC
     FM281800 VRB06KT P6SM SKC=



000
FTUS45 KLKN 271720
TAFTPH
TAF
KTPH 271720Z 2718/2818 33014G24KT P6SM SKC
     FM280300 36012KT P6SM SKC=



000
FTUS45 KLKN 271720
TAFELY
TAF
KELY 271720Z 2718/2818 32012G22KT P6SM FEW070
     FM280300 35007KT P6SM SKC=



000
FTUS45 KLKN 271720
TAFEKO
TAF
KEKO 271720Z 2718/2818 25012G22KT P6SM SCT070
     FM280200 01007KT P6SM SKC=



000
FTUS45 KLKN 271720
TAFELY
TAF
KELY 271720Z 2718/2818 32012G22KT P6SM FEW070
     FM280300 35007KT P6SM SKC=



000
FTUS45 KLKN 271720
TAFEKO
TAF
KEKO 271720Z 2718/2818 25012G22KT P6SM SCT070
     FM280200 01007KT P6SM SKC=



000
FTUS45 KLKN 271720
TAFTPH
TAF
KTPH 271720Z 2718/2818 33014G24KT P6SM SKC
     FM280300 36012KT P6SM SKC=



000
FTUS45 KLKN 271720
TAFWMC
TAF
KWMC 271720Z 2718/2818 32010G20KT P6SM FEW070
     FM280200 36009KT P6SM SKC=



000
FTUS45 KLKN 271720
TAFWMC
TAF
KWMC 271720Z 2718/2818 32010G20KT P6SM FEW070
     FM280200 36009KT P6SM SKC=



000
FTUS45 KLKN 271120
TAFWMC
TAF
KWMC 271120Z 2712/2812 30009KT P6SM VCSH BKN080 BKN200
     FM271300 30007KT P6SM SCT060
     FM272000 30010G18KT P6SM FEW070
     FM280200 35007KT P6SM SKC=



000
FTUS45 KLKN 271120
TAFWMC
TAF
KWMC 271120Z 2712/2812 30009KT P6SM VCSH BKN080 BKN200
     FM271300 30007KT P6SM SCT060
     FM272000 30010G18KT P6SM FEW070
     FM280200 35007KT P6SM SKC=



000
FTUS45 KLKN 271120
TAFWMC
TAF
KWMC 271120Z 2712/2812 30009KT P6SM VCSH BKN080 BKN200
     FM271300 30007KT P6SM SCT060
     FM272000 30010G18KT P6SM FEW070
     FM280200 35007KT P6SM SKC=



000
FTUS45 KLKN 271120
TAFEKO
TAF
KEKO 271120Z 2712/2812 35009KT P6SM VCSH BKN080 BKN200
     FM271500 30009KT P6SM SCT050
     FM271800 27015G25KT P6SM SCT060
     FM280300 33007KT P6SM SKC=



000
FTUS45 KLKN 271120
TAFELY
TAF
KELY 271120Z 2712/2812 17009KT P6SM SKC
     FM271400 30009KT P6SM SCT080
     FM271800 31009G18KT P6SM FEW060
     FM280300 33007KT P6SM SKC=



000
FTUS45 KLKN 271120
TAFEKO
TAF
KEKO 271120Z 2712/2812 35009KT P6SM VCSH BKN080 BKN200
     FM271500 30009KT P6SM SCT050
     FM271800 27015G25KT P6SM SCT060
     FM280300 33007KT P6SM SKC=



000
FTUS45 KLKN 271120
TAFEKO
TAF
KEKO 271120Z 2712/2812 35009KT P6SM VCSH BKN080 BKN200
     FM271500 30009KT P6SM SCT050
     FM271800 27015G25KT P6SM SCT060
     FM280300 33007KT P6SM SKC=



000
FTUS45 KLKN 271120
TAFWMC
TAF
KWMC 271120Z 2712/2812 30009KT P6SM VCSH BKN080 BKN200
     FM271300 30007KT P6SM SCT060
     FM272000 30010G18KT P6SM FEW070
     FM280200 35007KT P6SM SKC=



000
FTUS45 KLKN 271120
TAFELY
TAF
KELY 271120Z 2712/2812 17009KT P6SM SKC
     FM271400 30009KT P6SM SCT080
     FM271800 31009G18KT P6SM FEW060
     FM280300 33007KT P6SM SKC=



000
FTUS45 KLKN 271120
TAFTPH
TAF
KTPH 271120Z 2712/2812 35015G25KT P6SM SKC
     FM271800 34010G20KT P6SM SKC
     FM280300 34007KT P6SM SKC=



000
FTUS45 KLKN 271120
TAFEKO
TAF
KEKO 271120Z 2712/2812 35009KT P6SM VCSH BKN080 BKN200
     FM271500 30009KT P6SM SCT050
     FM271800 27015G25KT P6SM SCT060
     FM280300 33007KT P6SM SKC=



000
FTUS45 KLKN 271120
TAFTPH
TAF
KTPH 271120Z 2712/2812 35015G25KT P6SM SKC
     FM271800 34010G20KT P6SM SKC
     FM280300 34007KT P6SM SKC=



000
FTUS45 KLKN 271120
TAFELY
TAF
KELY 271120Z 2712/2812 17009KT P6SM SKC
     FM271400 30009KT P6SM SCT080
     FM271800 31009G18KT P6SM FEW060
     FM280300 33007KT P6SM SKC=



000
FTUS45 KLKN 271120
TAFTPH
TAF
KTPH 271120Z 2712/2812 35015G25KT P6SM SKC
     FM271800 34010G20KT P6SM SKC
     FM280300 34007KT P6SM SKC=



000
FTUS45 KLKN 270908 AAA
TAFWMC
TAF AMD
KWMC 270908Z 2709/2806 33015G20KT P6SM VCSH OVC080
     FM271200 34009KT P6SM SCT100
     FM272000 30010G20KT P6SM FEW100
     FM280100 VRB06KT P6SM SKC=



000
FTUS45 KLKN 270908 AAA
TAFWMC
TAF AMD
KWMC 270908Z 2709/2806 33015G20KT P6SM VCSH OVC080
     FM271200 34009KT P6SM SCT100
     FM272000 30010G20KT P6SM FEW100
     FM280100 VRB06KT P6SM SKC=



000
FTUS45 KLKN 270603 AAA
TAFTPH
TAF AMD
KTPH 270603Z 2706/2806 33015G22KT P6SM SKC
     FM271800 34010G20KT P6SM SKC=



000
FTUS45 KLKN 270603 AAA
TAFTPH
TAF AMD
KTPH 270603Z 2706/2806 33015G22KT P6SM SKC
     FM271800 34010G20KT P6SM SKC=



000
FTUS45 KLKN 270603 AAA
TAFTPH
TAF AMD
KTPH 270603Z 2706/2806 33015G22KT P6SM SKC
     FM271800 34010G20KT P6SM SKC=



000
FTUS45 KLKN 270603 AAA
TAFTPH
TAF AMD
KTPH 270603Z 2706/2806 33015G22KT P6SM SKC
     FM271800 34010G20KT P6SM SKC=



000
FTUS45 KLKN 270520
TAFELY
TAF
KELY 270520Z 2706/2806 18013KT P6SM SKC
     FM271500 30007KT P6SM SKC
     FM271800 33008G18KT P6SM SKC
     FM280200 18009KT P6SM SKC=



000
FTUS45 KLKN 270520
TAFEKO
TAF
KEKO 270520Z 2706/2806 26009KT P6SM FEW120
     FM270900 29009KT P6SM BKN120
     FM271200 23007KT P6SM VCSH SCT070 BKN100
     FM271800 26010G20KT P6SM SKC
     FM280100 VRB06KT P6SM SKC=



000
FTUS45 KLKN 270520
TAFEKO
TAF
KEKO 270520Z 2706/2806 26009KT P6SM FEW120
     FM270900 29009KT P6SM BKN120
     FM271200 23007KT P6SM VCSH SCT070 BKN100
     FM271800 26010G20KT P6SM SKC
     FM280100 VRB06KT P6SM SKC=



000
FTUS45 KLKN 270520
TAFWMC
TAF
KWMC 270520Z 2706/2806 30007KT P6SM SCT120
     FM270900 33009KT P6SM VCSH SCT070 BKN100
     FM271600 34009KT P6SM SCT100
     FM272000 30010G20KT P6SM FEW100
     FM280100 VRB06KT P6SM SKC=



000
FTUS45 KLKN 270520
TAFWMC
TAF
KWMC 270520Z 2706/2806 30007KT P6SM SCT120
     FM270900 33009KT P6SM VCSH SCT070 BKN100
     FM271600 34009KT P6SM SCT100
     FM272000 30010G20KT P6SM FEW100
     FM280100 VRB06KT P6SM SKC=



000
FTUS45 KLKN 270520
TAFTPH
TAF
KTPH 270520Z 2706/2806 27013G23KT P6SM SKC
     FM271200 34017G27KT P6SM SKC
     FM271800 34010G20KT P6SM SKC=



000
FTUS45 KLKN 270520
TAFELY
TAF
KELY 270520Z 2706/2806 18013KT P6SM SKC
     FM271500 30007KT P6SM SKC
     FM271800 33008G18KT P6SM SKC
     FM280200 18009KT P6SM SKC=



000
FTUS45 KLKN 270520
TAFEKO
TAF
KEKO 270520Z 2706/2806 26009KT P6SM FEW120
     FM270900 29009KT P6SM BKN120
     FM271200 23007KT P6SM VCSH SCT070 BKN100
     FM271800 26010G20KT P6SM SKC
     FM280100 VRB06KT P6SM SKC=



000
FTUS45 KLKN 270520
TAFWMC
TAF
KWMC 270520Z 2706/2806 30007KT P6SM SCT120
     FM270900 33009KT P6SM VCSH SCT070 BKN100
     FM271600 34009KT P6SM SCT100
     FM272000 30010G20KT P6SM FEW100
     FM280100 VRB06KT P6SM SKC=



000
FTUS45 KLKN 270520
TAFELY
TAF
KELY 270520Z 2706/2806 18013KT P6SM SKC
     FM271500 30007KT P6SM SKC
     FM271800 33008G18KT P6SM SKC
     FM280200 18009KT P6SM SKC=



000
FTUS45 KLKN 270520
TAFWMC
TAF
KWMC 270520Z 2706/2806 30007KT P6SM SCT120
     FM270900 33009KT P6SM VCSH SCT070 BKN100
     FM271600 34009KT P6SM SCT100
     FM272000 30010G20KT P6SM FEW100
     FM280100 VRB06KT P6SM SKC=



000
FTUS45 KLKN 270520
TAFTPH
TAF
KTPH 270520Z 2706/2806 27013G23KT P6SM SKC
     FM271200 34017G27KT P6SM SKC
     FM271800 34010G20KT P6SM SKC=



000
FTUS45 KLKN 270520
TAFTPH
TAF
KTPH 270520Z 2706/2806 27013G23KT P6SM SKC
     FM271200 34017G27KT P6SM SKC
     FM271800 34010G20KT P6SM SKC=



000
FTUS45 KLKN 270520
TAFTPH
TAF
KTPH 270520Z 2706/2806 27013G23KT P6SM SKC
     FM271200 34017G27KT P6SM SKC
     FM271800 34010G20KT P6SM SKC=



000
FTUS45 KLKN 270520
TAFELY
TAF
KELY 270520Z 2706/2806 18013KT P6SM SKC
     FM271500 30007KT P6SM SKC
     FM271800 33008G18KT P6SM SKC
     FM280200 18009KT P6SM SKC=



000
FTUS45 KLKN 270520
TAFEKO
TAF
KEKO 270520Z 2706/2806 26009KT P6SM FEW120
     FM270900 29009KT P6SM BKN120
     FM271200 23007KT P6SM VCSH SCT070 BKN100
     FM271800 26010G20KT P6SM SKC
     FM280100 VRB06KT P6SM SKC=



    US Dept of Commerce
    National Oceanic and Atmospheric Administration
    National Weather Service
    1325 East West Highway
    Silver Spring, MD 20910
    Page Author: NWS Internet Services Team
Disclaimer
Information Quality
Credits
Glossary
Privacy Policy
Freedom of Information Act (FOIA)
About Us
Career Opportunities